createdAt,value
2022-12-20T00:04:21.763Z,4.07
2022-12-20T00:09:25.301Z,4.07
2022-12-20T00:14:27.664Z,4.10
2022-12-20T00:19:31.641Z,4.13
2022-12-20T00:24:34.058Z,5.07
2022-12-20T00:29:36.429Z,3.83
2022-12-20T00:34:40.208Z,4.07
2022-12-20T00:39:42.593Z,4.35
2022-12-20T00:44:44.987Z,4.07
2022-12-20T00:49:48.708Z,4.20
2022-12-20T00:54:51.077Z,4.13
2022-12-20T00:59:53.459Z,4.13
2022-12-20T01:04:57.284Z,4.25
2022-12-20T01:09:59.698Z,3.63
2022-12-20T01:15:02.135Z,4.47
2022-12-20T01:20:06.704Z,4.13
2022-12-20T01:25:09.436Z,3.90
2022-12-20T01:30:12.517Z,3.33
2022-12-20T01:35:16.553Z,3.35
2022-12-20T01:40:18.991Z,3.33
2022-12-20T01:45:24.253Z,2.70
2022-12-20T01:50:28.532Z,3.25
2022-12-20T01:55:31.276Z,3.08
2022-12-20T02:00:33.687Z,2.43
2022-12-20T02:05:38.377Z,2.70
2022-12-20T02:10:48.331Z,2.80
2022-12-20T02:15:54.919Z,2.88
2022-12-20T02:21:14.422Z,2.72
2022-12-20T02:26:24.416Z,2.90
2022-12-20T02:31:33.983Z,3.10
2022-12-20T02:36:36.408Z,3.10
2022-12-20T02:41:40.403Z,3.25
2022-12-20T02:46:44.745Z,3.08
2022-12-20T02:51:48.444Z,3.25
2022-12-20T02:56:52.830Z,3.45
2022-12-20T03:01:57.747Z,4.22
2022-12-20T03:07:01.478Z,4.68
2022-12-20T03:12:04.367Z,4.72
2022-12-20T03:17:09.488Z,5.00
2022-12-20T03:22:11.983Z,4.40
2022-12-20T03:27:14.337Z,4.70
2022-12-20T03:32:18.015Z,5.25
2022-12-20T03:37:20.379Z,4.80
2022-12-20T03:42:22.791Z,5.53
2022-12-20T03:47:26.526Z,5.38
2022-12-20T03:52:28.928Z,5.05
2022-12-20T03:57:31.348Z,4.68
2022-12-20T04:02:35.200Z,4.68
2022-12-20T04:07:37.723Z,4.80
2022-12-20T04:12:40.093Z,4.72
2022-12-20T04:17:43.886Z,4.30
2022-12-20T04:22:46.487Z,4.60
2022-12-20T04:27:48.861Z,4.87
2022-12-20T04:32:54.631Z,3.78
2022-12-20T04:37:57.049Z,3.95
2022-12-20T04:42:59.469Z,4.53
2022-12-20T04:48:28.417Z,4.13
2022-12-20T04:53:43.297Z,6.30
2022-12-20T04:58:45.895Z,4.38
2022-12-20T05:03:50.124Z,3.80
2022-12-20T05:08:52.614Z,3.75
2022-12-20T05:13:55.000Z,3.53
2022-12-20T05:18:58.856Z,3.95
2022-12-20T05:24:18.979Z,3.50
2022-12-20T05:29:21.509Z,3.78
2022-12-20T05:34:25.329Z,3.40
2022-12-20T05:39:27.975Z,3.67
2022-12-20T05:44:30.287Z,3.37
2022-12-20T05:49:34.561Z,3.58
2022-12-20T05:54:36.888Z,4.10
2022-12-20T05:59:39.234Z,5.05
2022-12-20T06:04:42.995Z,3.65
2022-12-20T06:09:45.336Z,4.70
2022-12-20T06:14:47.675Z,4.97
2022-12-20T06:19:51.404Z,5.38
2022-12-20T06:24:53.799Z,6.10
2022-12-20T06:29:56.156Z,7.93
2022-12-20T06:34:59.926Z,7.07
2022-12-20T06:40:02.315Z,6.55
2022-12-20T06:45:04.795Z,6.72
2022-12-20T06:50:09.299Z,6.10
2022-12-20T06:55:11.711Z,6.95
2022-12-20T07:00:14.619Z,5.65
2022-12-20T07:05:18.543Z,6.57
2022-12-20T07:10:20.904Z,5.30
2022-12-20T07:15:23.299Z,5.60
2022-12-20T07:20:27.033Z,6.07
2022-12-20T07:25:29.580Z,6.10
2022-12-20T07:30:32.165Z,5.33
2022-12-20T07:35:36.164Z,5.35
2022-12-20T07:40:40.885Z,4.97
2022-12-20T07:45:43.327Z,5.45
2022-12-20T07:50:47.618Z,5.28
2022-12-20T07:55:50.340Z,4.65
2022-12-20T08:00:52.955Z,5.60
2022-12-20T08:05:57.308Z,5.83
2022-12-20T08:10:59.861Z,4.68
2022-12-20T08:16:02.216Z,5.33
2022-12-20T08:21:06.216Z,5.00
2022-12-20T08:26:08.639Z,4.80
2022-12-20T08:31:12.750Z,5.03
2022-12-20T08:36:16.578Z,4.75
2022-12-20T08:41:19.011Z,4.50
2022-12-20T08:46:21.425Z,4.60
2022-12-20T08:51:25.291Z,4.50
2022-12-20T08:56:27.828Z,5.20
2022-12-20T09:01:33.653Z,3.97
2022-12-20T09:06:37.734Z,3.70
2022-12-20T09:11:40.177Z,3.25
2022-12-20T09:16:42.561Z,3.20
2022-12-20T09:21:46.271Z,2.97
2022-12-20T09:26:50.487Z,2.65
2022-12-20T09:31:54.483Z,2.50
2022-12-20T09:36:58.216Z,3.35
2022-12-20T09:42:00.638Z,2.92
2022-12-20T09:47:10.592Z,3.17
2022-12-20T09:52:23.043Z,4.10
2022-12-20T09:57:30.198Z,3.90
2022-12-20T10:02:58.327Z,3.85
2022-12-20T10:07:58.467Z,3.80
2022-12-20T10:13:03.223Z,4.30
2022-12-20T10:18:19.551Z,4.28
2022-12-20T10:23:32.812Z,4.85
2022-12-20T10:33:38.163Z,4.70
2022-12-20T10:38:46.510Z,4.15
2022-12-20T10:43:50.528Z,4.47
2022-12-20T10:48:52.881Z,5.25
2022-12-20T10:53:58.187Z,5.32
2022-12-20T10:59:01.609Z,4.90
2022-12-20T11:09:23.985Z,5.32
2022-12-20T11:14:26.754Z,5.00
2022-12-20T11:19:39.497Z,5.75
2022-12-20T11:24:46.623Z,5.53
2022-12-20T11:29:57.216Z,5.60
2022-12-20T11:35:04.267Z,5.40
2022-12-20T11:40:17.893Z,6.20
2022-12-20T11:45:24.796Z,6.30
2022-12-20T11:50:35.260Z,5.97
2022-12-20T11:55:41.729Z,6.60
2022-12-20T12:00:48.568Z,5.95
2022-12-20T12:05:53.798Z,5.88
2022-12-20T12:11:00.235Z,6.35
2022-12-20T12:16:04.692Z,6.78
2022-12-20T12:21:10.256Z,6.22
2022-12-20T12:26:19.688Z,7.25
2022-12-20T12:31:24.940Z,6.20
2022-12-20T12:36:40.328Z,6.20
2022-12-20T12:42:16.942Z,6.50
2022-12-20T12:47:22.925Z,6.45
2022-12-20T12:52:40.191Z,6.50
2022-12-20T12:57:55.569Z,5.60
2022-12-20T13:02:59.410Z,5.93
2022-12-20T13:08:02.249Z,5.05
2022-12-20T13:13:13.489Z,5.57
2022-12-20T13:18:24.777Z,5.45
2022-12-20T13:23:27.250Z,5.53
2022-12-20T13:28:45.211Z,5.47
2022-12-20T13:33:49.747Z,6.60
2022-12-20T13:38:54.011Z,5.97
2022-12-20T13:43:57.061Z,6.40
2022-12-20T13:49:03.038Z,6.45
2022-12-20T13:54:08.548Z,6.15
2022-12-20T13:59:15.327Z,6.90
2022-12-20T14:04:20.328Z,6.60
2022-12-20T14:09:29.891Z,6.85
2022-12-20T14:14:32.320Z,7.03
2022-12-20T14:19:36.157Z,7.40
2022-12-20T14:24:39.684Z,7.80
2022-12-20T14:29:42.573Z,7.75
2022-12-20T14:34:47.452Z,9.18
2022-12-20T14:39:55.931Z,8.50
2022-12-20T14:45:03.554Z,9.38
2022-12-20T14:50:17.840Z,8.60
2022-12-20T14:55:21.764Z,8.98
2022-12-20T15:00:25.490Z,9.07
2022-12-20T15:05:42.086Z,10.55
2022-12-20T15:10:48.459Z,10.95
2022-12-20T15:15:50.855Z,9.27
2022-12-20T15:21:00.220Z,11.68
2022-12-20T15:26:02.828Z,9.75
2022-12-20T15:31:05.676Z,10.00
2022-12-20T15:36:14.655Z,10.73
2022-12-20T15:41:19.824Z,9.57
2022-12-20T15:46:22.352Z,10.30
2022-12-20T15:51:28.715Z,9.40
2022-12-20T15:56:31.609Z,10.38
2022-12-20T16:01:40.360Z,11.35
2022-12-20T16:06:44.777Z,10.80
2022-12-20T16:11:47.260Z,9.50
2022-12-20T16:16:50.176Z,8.97
2022-12-20T16:21:54.139Z,10.45
2022-12-20T16:26:56.494Z,9.95
2022-12-20T16:31:58.951Z,10.18
2022-12-20T16:37:02.855Z,10.77
2022-12-20T16:42:07.645Z,10.48
2022-12-20T16:47:10.762Z,11.10
2022-12-20T16:52:17.607Z,10.68
2022-12-20T16:57:21.194Z,9.50
2022-12-20T17:02:26.852Z,11.05
2022-12-20T17:07:30.698Z,11.25
2022-12-20T17:12:33.048Z,11.48
2022-12-20T17:17:35.405Z,11.00
2022-12-20T17:22:39.162Z,12.45
2022-12-20T17:27:42.822Z,14.13
2022-12-20T17:32:45.576Z,13.15
2022-12-20T17:37:50.705Z,13.82
2022-12-20T17:42:53.402Z,12.40
2022-12-20T17:47:56.144Z,12.60
2022-12-20T17:52:59.880Z,12.13
2022-12-20T17:58:02.317Z,12.48
2022-12-20T18:03:04.789Z,13.52
2022-12-20T18:08:09.556Z,14.37
2022-12-20T18:13:12.004Z,14.75
2022-12-20T18:18:14.447Z,15.30
2022-12-20T18:23:18.159Z,16.10
2022-12-20T18:28:20.549Z,16.88
2022-12-20T18:33:22.931Z,17.13
2022-12-20T18:38:26.727Z,18.75
2022-12-20T18:43:30.590Z,19.45
2022-12-20T18:48:33.209Z,18.52
2022-12-20T18:53:37.426Z,18.13
2022-12-20T18:58:39.800Z,18.90
2022-12-20T19:03:42.517Z,18.95
2022-12-20T19:08:46.278Z,19.52
2022-12-20T19:13:49.741Z,22.45
2022-12-20T19:18:52.523Z,22.65
2022-12-20T19:23:57.150Z,23.00
2022-12-20T19:29:00.034Z,21.88
2022-12-20T19:34:03.484Z,22.52
2022-12-20T19:44:09.920Z,24.08
2022-12-20T19:49:13.436Z,23.67
2022-12-20T19:54:16.968Z,24.75
2022-12-20T19:59:21.019Z,25.13
2022-12-20T20:04:23.428Z,25.13
2022-12-20T20:09:25.821Z,24.10
2022-12-20T20:14:29.629Z,24.85
2022-12-20T20:19:33.917Z,25.02
2022-12-20T20:24:36.253Z,26.35
2022-12-20T20:29:40.153Z,25.27
2022-12-20T20:34:42.503Z,24.98
2022-12-20T20:39:44.881Z,26.25
2022-12-20T20:44:48.598Z,26.77
2022-12-20T20:49:52.699Z,25.63
2022-12-20T20:54:55.126Z,25.83
2022-12-20T20:59:58.796Z,25.38
2022-12-20T21:05:52.497Z,26.58
2022-12-20T21:10:23.609Z,27.15
2022-12-20T21:15:28.034Z,24.27
2022-12-20T21:20:30.440Z,25.98
2022-12-20T21:25:38.303Z,24.35
2022-12-20T21:30:42.134Z,25.92
2022-12-20T21:35:49.950Z,27.25
2022-12-20T21:40:59.795Z,27.45
2022-12-20T21:46:03.558Z,27.77
2022-12-20T21:51:06.606Z,27.85
2022-12-20T21:56:09.007Z,30.63
2022-12-20T22:01:15.444Z,32.30
2022-12-20T22:06:18.194Z,28.20
2022-12-20T22:11:20.614Z,30.27
2022-12-20T22:16:25.455Z,31.83
2022-12-20T22:21:29.274Z,31.88
2022-12-20T22:26:33.114Z,30.73
2022-12-20T22:31:37.731Z,32.13
2022-12-20T22:36:40.177Z,32.63
2022-12-20T22:41:42.669Z,26.83
2022-12-20T22:46:46.381Z,32.00
2022-12-20T22:52:02.438Z,31.58
2022-12-20T22:57:10.316Z,31.27
2022-12-20T23:02:14.175Z,30.13
2022-12-20T23:07:16.852Z,32.40
2022-12-20T23:12:36.776Z,29.50
2022-12-20T23:17:40.440Z,30.50
2022-12-20T23:22:42.848Z,30.88
2022-12-20T23:27:46.239Z,31.80
2022-12-20T23:37:52.688Z,32.92
2022-12-20T23:42:55.365Z,36.45
2022-12-20T23:47:57.701Z,32.97
2022-12-20T23:53:01.688Z,35.92
2022-12-20T23:58:04.087Z,34.92
